Terminal Aerodrome Forecast
Issued by NWS

Home | Current Version | Previous Version | Text Only | Print | Product List | Glossary On
Versions: 1 2 3 4 5 6 7 8 9 10 11 12 13 14 15
000
FTUS46 KMTR 250539
TAFOAK
TAF
KOAK 250539Z 2506/2612 33005KT P6SM FEW008
      TEMPO 2506/2510 BKN007
     FM251000 28007KT P6SM OVC007
     FM251800 29007KT P6SM FEW012
     FM252100 30012KT P6SM FEW015 FEW250
     FM260300 30007KT P6SM FEW015 FEW250
     FM260600 30008KT P6SM OVC007=

USA.gov is the U.S. government's official web portal to all federal, state and local government web resources and services.